Airfield :







YOU CAN JOIN US ON...

 
LOGIN :

Register | Disclaimer

   EN    FR    IT 

 









Legend :    VFR   Marginal VFR   IFR   Intensive IFR   Very Intensive IFR
Visi :
Ceiling :
>= 8 km
>= 3000ft
5 to 8 km
1000 to 3000 ft
1500m to 5 km
500 to 1000 ft
800 to 1500m
200 to 500 ft
< 800m
< 200 ft
Symbols :   Thunderstorms  Fog  Heavy snow  Heavy precipitations  Wind > 20 kt






- Airport Elevation : 1808 ft
- IATA code : YWK


CYWK - Wabush

CURRENT METAR :
  • 280700Z AUTO 04013KT 9SM OVC100 M17/M23 A2965 RMK SLP093

EXPIRED METARs :
  • 280600Z AUTO 05011KT 9SM OVC110 M15/M23 A2967 RMK SLP103

TAF TAF CYWK
Valid from the 28 at 08:00 until the 28 at 20:00 UTC


280738Z 2808/2820 06012KT P6SM OVC210
BECMG 2808/2810 08012G22KT BKN010 OVC100
FM281000 08012G22KT P6SM FEW008 SCT015 OVC025
TEMPO 2810/2811 1SM -SN BKN008 OVC015
FM281100 06012G22KT 1SM -SN OVC005
TEMPO 2811/2814 3SM -SN OVC007
BECMG 2812/2814 08015G25KT
FM281400 08015G25KT 3/4SM -SN BLSN OVC004 RMK FCST BASED ON AUTO OBS. NXT FCST BY 281400Z



MET'MAP, your aeronautical weather chart ! - Copyright ORBIFLY December 2007 - Disclaimer

ORBIFLY MET'MAP TEAM :

Programming & Development : Alexandra Zaïnal
Concept & original design : Baudouin d'Aumeries
Assistance for programming : Marc-Olivier Méhu
Technical & hardware support : Manuel Goepfert

Contact : metmap@orbifly.com




SOURCES & CREDITS :

   NOAA